Flight Track Log - Related Links

Times and Time Zones

All times are in EDT time to prevent confusion due to time zone crossing. See the PDT4373 flight status page for this flight to view local times or setup timezone preferences in your user account.

Time Position Orientation Groundspeed Altitude Reporting Facility
EDT Latitude Longitude Course Direction KTS MPH feet Rate Location/Type
Thu 09:54:04 AM 39.8833 -75.2167 295° West 111 128 600  Level Philadelphia TRACON
Thu 09:56:22 AM 39.9500 -75.1667 30° Northeast 141 162 3,900 1,353 Climbing Philadelphia TRACON
Thu 09:57:00 AM 40.1236 -75.3178 311° West  Level Estimated
Thu 09:57:28 AM 40.0000 -75.1667 360° North 187 215 5,200  Level Philadelphia TRACON
Thu 09:58:00 AM 40.1865 -75.3372 311° West  Level Estimated
Thu 09:58:28 AM 40.0500 -75.2000 333° Northwest 188 216 6,400  Level Philadelphia TRACON
Thu 09:59:00 AM 40.2141 -75.4136 295° West  Level FlightAware Approximate
Thu 10:00:51 AM 40.1633 -75.2689 335° Northwest 202 232 9,000  Level New York Center
Thu 10:01:51 AM 40.1744 -75.3564 279° West 217 250 9,300 500 Climbing New York Center
Thu 10:02:51 AM 40.1942 -75.4392 287° West 235 270 10,000 600 Climbing New York Center
Thu 10:03:51 AM 40.2119 -75.5167 287° West 245 282 10,500 550 Climbing New York Center
Thu 10:04:51 AM 40.2442 -75.5975 298° West 240 276 11,100 550 Climbing New York Center
Thu 10:05:51 AM 40.2914 -75.6636 313° West 240 276 11,600 500 Climbing New York Center
Thu 10:06:51 AM 40.3325 -75.7292 309° West 240 276 12,100 250 Climbing New York Center
Thu 10:07:51 AM 40.3692 -75.7972 305° West 240 276 12,100  Level New York Center
Thu 10:08:51 AM 40.4219 -75.8772 311° West 257 296 12,100  Level New York Center
Thu 10:09:51 AM 40.4711 -75.9464 313° West 264 304 12,100  Level New York Center
Thu 10:10:51 AM 40.5142 -76.0097 312° West 264 304 12,100  Level New York Center
Thu 10:11:51 AM 40.5669 -76.0875 312° West 257 296 12,100  Level New York Center
Thu 10:12:51 AM 40.6136 -76.1594 311° West 257 296 12,100  Level New York Center
Thu 10:13:51 AM 40.6561 -76.2339 307° West 257 296 12,100  Level New York Center
Thu 10:14:51 AM 40.7133 -76.2550 344° North 239 275 12,100  Level New York Center
Thu 10:15:51 AM 40.7933 -76.2394 North 234 269 12,100  Level New York Center
Thu 10:16:51 AM 40.8642 -76.2397 360° North 239 275 12,100  Level New York Center
Thu 10:17:51 AM 40.9353 -76.2372 North 245 282 12,100 -50 Level New York Center
Thu 10:18:51 AM 41.0042 -76.2317 North 250 288 12,000 -50 Descending New York Center
Thu 10:19:51 AM 41.0711 -76.2261 North 250 288 12,000  Level New York Center
Thu 10:20:51 AM 41.1400 -76.2233 North 250 288 12,000  Level New York Center
Thu 10:21:51 AM 41.2008 -76.2144 North 250 288 12,000  Level New York Center
Thu 10:22:51 AM 41.2683 -76.1978 11° North 245 282 12,000  Level New York Center
Thu 10:23:51 AM 41.3414 -76.1953 North 245 282 12,000  Level New York Center
Thu 10:24:51 AM 41.3975 -76.1944 North 240 276 12,000  Level New York Center
Thu 10:25:51 AM 41.4769 -76.1897 North 240 276 12,000  Level New York Center
Thu 10:26:51 AM 41.5356 -76.1806 North 234 269 12,000  Level New York Center
Thu 10:27:51 AM 41.6006 -76.1747 North 234 269 12,000  Level New York Center
Thu 10:28:51 AM 41.6717 -76.1694 North 234 269 12,000 -550 Level New York Center
Thu 10:29:51 AM 41.7469 -76.1617 North 244 281 10,900 -1,250 Descending New York Center
Thu 10:30:51 AM 41.8242 -76.1567 North 272 313 9,500 -1,550 Descending New York Center
Thu 10:31:51 AM 41.8931 -76.1511 North 277 319 7,800 -1,700 Descending New York Center
Thu 10:32:51 AM 41.9639 -76.1039 26° Northeast 261 300 6,100 -1,400 Descending New York Center
Thu 10:33:51 AM 42.0258 -76.0669 24° Northeast 245 282 5,000 -900 Descending New York Center
Thu 10:34:51 AM 42.0753 -76.0319 28° Northeast 240 276 4,300 -700 Descending New York Center
Thu 10:35:51 AM 42.1186 -75.9989 29° Northeast 210 242 3,600 -650 Descending New York Center
Thu 10:36:51 AM 42.1508 -75.9736 30° Northeast 169 194 3,000 -750 Descending New York Center
Thu 10:37:51 AM 42.1806 -75.9619 16° North 127 146 2,100 -550 Descending New York Center
Thu 10:38:51 AM 42.2169 -75.9367 27° Northeast 120 138 1,900 -200 Descending New York Center

Login

Don't have an account? Register now (free) for customized features, flight alerts, and more!